sensor_id;sensor_type;location;lat;lon;timestamp;pressure;altitude;pressure_sealevel;temperature;humidity
69570;BME280;56781;42.292;23.146;2024-02-14T00:01:08;95167.53;;;4.64;77.69
69570;BME280;56781;42.292;23.146;2024-02-14T00:03:37;95050.81;;;3.91;75.11
69570;BME280;56781;42.292;23.146;2024-02-14T00:06:06;95166.75;;;4.60;76.71
69570;BME280;56781;42.292;23.146;2024-02-14T00:08:35;94765.16;;;1.78;75.52
69570;BME280;56781;42.292;23.146;2024-02-14T00:11:05;94982.16;;;3.28;76.12
69570;BME280;56781;42.292;23.146;2024-02-14T00:13:33;94945.41;;;3.20;77.02
69570;BME280;56781;42.292;23.146;2024-02-14T00:16:05;95108.72;;;4.20;78.30
69570;BME280;56781;42.292;23.146;2024-02-14T00:18:34;94555.38;;;0.59;76.49
69570;BME280;56781;42.292;23.146;2024-02-14T00:21:03;94543.97;;;0.43;75.33
69570;BME280;56781;42.292;23.146;2024-02-14T00:23:32;94555.00;;;0.34;76.93
69570;BME280;56781;42.292;23.146;2024-02-14T00:26:01;94879.13;;;2.58;74.01
69570;BME280;56781;42.292;23.146;2024-02-14T00:28:29;95119.22;;;4.25;78.22
69570;BME280;56781;42.292;23.146;2024-02-14T00:30:59;94542.97;;;0.25;76.60
69570;BME280;56781;42.292;23.146;2024-02-14T00:33:29;94969.47;;;3.28;74.95
69570;BME280;56781;42.292;23.146;2024-02-14T00:35:58;94752.13;;;1.84;74.74
69570;BME280;56781;42.292;23.146;2024-02-14T00:38:26;94828.94;;;2.24;75.16
69570;BME280;56781;42.292;23.146;2024-02-14T00:40:55;95191.63;;;4.73;75.79
69570;BME280;56781;42.292;23.146;2024-02-14T00:43:24;94710.47;;;1.47;76.21
69570;BME280;56781;42.292;23.146;2024-02-14T00:45:53;95205.94;;;4.70;75.74
69570;BME280;56781;42.292;23.146;2024-02-14T00:48:23;94827.75;;;2.21;76.02
69570;BME280;56781;42.292;23.146;2024-02-14T00:50:54;95183.00;;;4.60;75.70
69570;BME280;56781;42.292;23.146;2024-02-14T00:53:23;95117.13;;;4.08;76.80
69570;BME280;56781;42.292;23.146;2024-02-14T00:55:51;95080.53;;;3.84;77.76
69570;BME280;56781;42.292;23.146;2024-02-14T00:58:20;94542.63;;;0.03;77.72
69570;BME280;56781;42.292;23.146;2024-02-14T01:00:48;94847.22;;;2.07;76.22
69570;BME280;56781;42.292;23.146;2024-02-14T01:03:17;95178.28;;;4.53;77.33
69570;BME280;56781;42.292;23.146;2024-02-14T01:05:47;94654.22;;;0.89;77.54
69570;BME280;56781;42.292;23.146;2024-02-14T01:08:18;94891.16;;;2.34;77.61
69570;BME280;56781;42.292;23.146;2024-02-14T01:10:47;95191.44;;;4.55;76.12
69570;BME280;56781;42.292;23.146;2024-02-14T01:13:16;94700.94;;;1.27;75.72
69570;BME280;56781;42.292;23.146;2024-02-14T01:15:45;94559.50;;;0.27;76.05
69570;BME280;56781;42.292;23.146;2024-02-14T01:18:14;94428.00;;;-0.58;75.92
69570;BME280;56781;42.292;23.146;2024-02-14T01:20:46;94828.03;;;2.12;76.23
69570;BME280;56781;42.292;23.146;2024-02-14T01:23:14;95187.16;;;4.50;77.10
69570;BME280;56781;42.292;23.146;2024-02-14T01:25:45;95197.53;;;4.44;77.81
69570;BME280;56781;42.292;23.146;2024-02-14T01:28:14;94570.44;;;0.14;77.38
69570;BME280;56781;42.292;23.146;2024-02-14T01:30:43;94698.34;;;1.07;77.10
69570;BME280;56781;42.292;23.146;2024-02-14T01:33:11;94656.59;;;0.68;76.05
69570;BME280;56781;42.292;23.146;2024-02-14T01:35:40;94544.00;;;0.16;76.03
69570;BME280;56781;42.292;23.146;2024-02-14T01:38:09;94666.09;;;0.84;77.58
69570;BME280;56781;42.292;23.146;2024-02-14T01:40:42;94572.84;;;0.19;77.35
69570;BME280;56781;42.292;23.146;2024-02-14T01:43:15;95205.53;;;4.34;77.63
69570;BME280;56781;42.292;23.146;2024-02-14T01:45:43;94629.72;;;0.44;76.78
69570;BME280;56781;42.292;23.146;2024-02-14T01:48:12;94760.66;;;1.32;76.79
69570;BME280;56781;42.292;23.146;2024-02-14T01:50:46;95121.16;;;3.57;78.25
69570;BME280;56781;42.292;23.146;2024-02-14T01:53:15;94889.50;;;2.26;76.09
69570;BME280;56781;42.292;23.146;2024-02-14T01:55:43;95099.22;;;3.62;77.05
69570;BME280;56781;42.292;23.146;2024-02-14T01:58:12;95004.13;;;2.93;76.96
69570;BME280;56781;42.292;23.146;2024-02-14T02:00:42;95224.59;;;4.41;76.47
69570;BME280;56781;42.292;23.146;2024-02-14T02:03:12;94821.16;;;1.62;76.63
69570;BME280;56781;42.292;23.146;2024-02-14T02:05:42;94469.28;;;-0.67;76.13
69570;BME280;56781;42.292;23.146;2024-02-14T02:08:10;94631.81;;;0.55;76.31
69570;BME280;56781;42.292;23.146;2024-02-14T02:10:39;94871.81;;;2.02;77.82
69570;BME280;56781;42.292;23.146;2024-02-14T02:13:08;94867.63;;;2.05;77.29
69570;BME280;56781;42.292;23.146;2024-02-14T02:15:37;94325.13;;;-1.54;75.60
69570;BME280;56781;42.292;23.146;2024-02-14T02:18:08;95157.88;;;3.58;77.37
69570;BME280;56781;42.292;23.146;2024-02-14T02:20:37;95079.59;;;3.39;77.90
69570;BME280;56781;42.292;23.146;2024-02-14T02:23:07;94771.28;;;1.22;77.18
69570;BME280;56781;42.292;23.146;2024-02-14T02:25:36;95146.09;;;3.73;77.68
69570;BME280;56781;42.292;23.146;2024-02-14T02:28:05;94598.59;;;-0.03;76.46
69570;BME280;56781;42.292;23.146;2024-02-14T02:30:35;94805.59;;;1.51;77.02
69570;BME280;56781;42.292;23.146;2024-02-14T02:33:05;94987.31;;;2.46;77.18
69570;BME280;56781;42.292;23.146;2024-02-14T02:35:34;95092.78;;;3.40;77.14
69570;BME280;56781;42.292;23.146;2024-02-14T02:38:03;95112.72;;;3.62;74.26
69570;BME280;56781;42.292;23.146;2024-02-14T02:40:34;94566.16;;;-0.13;74.99
69570;BME280;56781;42.292;23.146;2024-02-14T02:43:03;94708.53;;;0.95;73.67
69570;BME280;56781;42.292;23.146;2024-02-14T02:45:32;94835.94;;;1.71;75.78
69570;BME280;56781;42.292;23.146;2024-02-14T02:48:01;95099.78;;;3.45;75.74
69570;BME280;56781;42.292;23.146;2024-02-14T02:50:30;94635.28;;;0.32;74.93
69570;BME280;56781;42.292;23.146;2024-02-14T02:52:59;94561.31;;;-0.04;76.61
69570;BME280;56781;42.292;23.146;2024-02-14T02:55:28;95093.81;;;3.32;76.05
69570;BME280;56781;42.292;23.146;2024-02-14T02:58:00;94502.78;;;-0.37;75.69
69570;BME280;56781;42.292;23.146;2024-02-14T03:00:28;94696.56;;;0.65;74.58
69570;BME280;56781;42.292;23.146;2024-02-14T03:02:57;95141.84;;;3.72;75.49
69570;BME280;56781;42.292;23.146;2024-02-14T03:05:26;94723.81;;;0.87;74.40
69570;BME280;56781;42.292;23.146;2024-02-14T03:07:59;94808.00;;;1.57;74.07
69570;BME280;56781;42.292;23.146;2024-02-14T03:10:27;94840.66;;;1.78;75.88
69570;BME280;56781;42.292;23.146;2024-02-14T03:12:56;94732.69;;;0.87;75.58
69570;BME280;56781;42.292;23.146;2024-02-14T03:15:27;95152.59;;;3.69;77.05
69570;BME280;56781;42.292;23.146;2024-02-14T03:17:56;94464.19;;;-0.95;75.79
69570;BME280;56781;42.292;23.146;2024-02-14T03:20:25;94691.06;;;0.58;76.52
69570;BME280;56781;42.292;23.146;2024-02-14T03:22:56;94617.69;;;0.15;74.11
69570;BME280;56781;42.292;23.146;2024-02-14T03:25:24;95137.66;;;3.78;75.53
69570;BME280;56781;42.292;23.146;2024-02-14T03:27:53;94908.19;;;2.12;74.57
69570;BME280;56781;42.292;23.146;2024-02-14T03:30:26;94616.75;;;0.27;73.92
69570;BME280;56781;42.292;23.146;2024-02-14T03:32:56;94821.59;;;1.64;74.35
69570;BME280;56781;42.292;23.146;2024-02-14T03:35:25;95196.50;;;4.19;75.20
69570;BME280;56781;42.292;23.146;2024-02-14T03:37:54;94587.03;;;-0.03;72.83
69570;BME280;56781;42.292;23.146;2024-02-14T03:40:23;94566.16;;;-0.13;73.65
69570;BME280;56781;42.292;23.146;2024-02-14T03:42:52;94957.53;;;2.39;73.00
69570;BME280;56781;42.292;23.146;2024-02-14T03:45:20;95275.06;;;4.56;72.26
69570;BME280;56781;42.292;23.146;2024-02-14T03:47:51;94940.78;;;2.26;72.26
69570;BME280;56781;42.292;23.146;2024-02-14T03:50:19;95222.06;;;4.21;72.32
69570;BME280;56781;42.292;23.146;2024-02-14T03:52:48;94748.69;;;1.03;75.53
69570;BME280;56781;42.292;23.146;2024-02-14T03:55:17;94970.16;;;2.31;73.99
69570;BME280;56781;42.292;23.146;2024-02-14T03:57:46;95285.81;;;4.49;73.91
69570;BME280;56781;42.292;23.146;2024-02-14T04:00:16;94939.72;;;2.08;72.62
69570;BME280;56781;42.292;23.146;2024-02-14T04:02:44;94929.81;;;2.15;74.73
69570;BME280;56781;42.292;23.146;2024-02-14T04:05:17;95110.78;;;3.02;73.74
69570;BME280;56781;42.292;23.146;2024-02-14T04:07:46;95297.06;;;4.51;75.18
69570;BME280;56781;42.292;23.146;2024-02-14T04:10:19;94762.34;;;0.91;75.09
69570;BME280;56781;42.292;23.146;2024-02-14T04:12:47;94705.72;;;0.61;73.03
69570;BME280;56781;42.292;23.146;2024-02-14T04:15:16;94697.97;;;0.59;77.67
69570;BME280;56781;42.292;23.146;2024-02-14T04:17:45;95222.25;;;3.75;78.19
69570;BME280;56781;42.292;23.146;2024-02-14T04:20:13;94880.97;;;1.44;79.25
69570;BME280;56781;42.292;23.146;2024-02-14T04:22:43;95311.81;;;4.24;79.44
69570;BME280;56781;42.292;23.146;2024-02-14T04:25:12;95113.81;;;2.97;77.72
69570;BME280;56781;42.292;23.146;2024-02-14T04:27:41;94957.13;;;1.87;77.50
69570;BME280;56781;42.292;23.146;2024-02-14T04:30:10;95239.44;;;3.90;77.99
69570;BME280;56781;42.292;23.146;2024-02-14T04:32:40;95340.84;;;4.57;79.02
69570;BME280;56781;42.292;23.146;2024-02-14T04:35:10;95312.94;;;4.22;79.48
69570;BME280;56781;42.292;23.146;2024-02-14T04:37:40;94677.81;;;0.04;79.21
69570;BME280;56781;42.292;23.146;2024-02-14T04:40:13;94959.00;;;1.83;78.74
69570;BME280;56781;42.292;23.146;2024-02-14T04:42:41;95134.19;;;3.18;76.68
69570;BME280;56781;42.292;23.146;2024-02-14T04:45:10;95228.78;;;3.74;71.79
69570;BME280;56781;42.292;23.146;2024-02-14T04:47:39;95324.13;;;4.51;72.29
69570;BME280;56781;42.292;23.146;2024-02-14T04:50:09;95139.63;;;3.21;74.03
69570;BME280;56781;42.292;23.146;2024-02-14T04:52:38;94706.09;;;0.40;71.96
69570;BME280;56781;42.292;23.146;2024-02-14T04:55:08;94640.63;;;-0.14;71.73
69570;BME280;56781;42.292;23.146;2024-02-14T04:57:38;95344.22;;;4.50;71.44
69570;BME280;56781;42.292;23.146;2024-02-14T05:00:07;95336.09;;;4.50;71.93
69570;BME280;56781;42.292;23.146;2024-02-14T05:02:37;94418.09;;;-1.59;72.07
69570;BME280;56781;42.292;23.146;2024-02-14T05:05:06;94927.47;;;1.64;70.68
69570;BME280;56781;42.292;23.146;2024-02-14T05:07:35;95020.56;;;2.27;71.85
69570;BME280;56781;42.292;23.146;2024-02-14T05:10:04;95347.66;;;4.43;70.16
69570;BME280;56781;42.292;23.146;2024-02-14T05:12:35;95246.28;;;3.81;71.31
69570;BME280;56781;42.292;23.146;2024-02-14T05:15:06;94730.34;;;0.20;71.87
69570;BME280;56781;42.292;23.146;2024-02-14T05:17:35;94726.66;;;0.29;70.41
69570;BME280;56781;42.292;23.146;2024-02-14T05:20:04;95048.28;;;2.24;71.37
69570;BME280;56781;42.292;23.146;2024-02-14T05:22:36;94889.09;;;1.25;72.59
69570;BME280;56781;42.292;23.146;2024-02-14T05:25:06;94710.00;;;0.00;72.98
69570;BME280;56781;42.292;23.146;2024-02-14T05:27:36;94736.28;;;0.30;74.69
69570;BME280;56781;42.292;23.146;2024-02-14T05:30:07;94766.88;;;0.41;74.80
69570;BME280;56781;42.292;23.146;2024-02-14T05:32:36;94848.81;;;0.66;76.85
69570;BME280;56781;42.292;23.146;2024-02-14T05:35:07;95403.06;;;4.23;74.39
69570;BME280;56781;42.292;23.146;2024-02-14T05:37:36;95019.63;;;1.70;77.61
69570;BME280;56781;42.292;23.146;2024-02-14T05:40:06;94763.69;;;-0.04;78.81
69570;BME280;56781;42.292;23.146;2024-02-14T05:42:35;94864.09;;;0.62;76.90
69570;BME280;56781;42.292;23.146;2024-02-14T05:45:06;95412.69;;;4.20;73.06
69570;BME280;56781;42.292;23.146;2024-02-14T05:47:37;94888.81;;;0.87;78.28
69570;BME280;56781;42.292;23.146;2024-02-14T05:50:07;95331.91;;;3.69;76.64
69570;BME280;56781;42.292;23.146;2024-02-14T05:52:38;95145.56;;;2.31;76.81
69570;BME280;56781;42.292;23.146;2024-02-14T05:55:07;94805.81;;;0.28;77.85
69570;BME280;56781;42.292;23.146;2024-02-14T05:57:36;94844.56;;;0.27;78.51
69570;BME280;56781;42.292;23.146;2024-02-14T06:00:07;95429.34;;;4.22;73.99
69570;BME280;56781;42.292;23.146;2024-02-14T06:02:38;95444.97;;;4.33;74.35
69570;BME280;56781;42.292;23.146;2024-02-14T06:05:08;95435.06;;;4.44;69.56
69570;BME280;56781;42.292;23.146;2024-02-14T06:07:37;94674.53;;;-0.48;71.49
69570;BME280;56781;42.292;23.146;2024-02-14T06:10:07;95355.31;;;3.85;73.45
69570;BME280;56781;42.292;23.146;2024-02-14T06:12:36;95443.72;;;4.53;71.04
69570;BME280;56781;42.292;23.146;2024-02-14T06:15:08;94777.50;;;-0.05;72.37
69570;BME280;56781;42.292;23.146;2024-02-14T06:17:36;94996.13;;;1.47;71.00
69570;BME280;56781;42.292;23.146;2024-02-14T06:20:07;95338.47;;;3.95;69.62
69570;BME280;56781;42.292;23.146;2024-02-14T06:22:36;95094.56;;;2.03;68.62
69570;BME280;56781;42.292;23.146;2024-02-14T06:25:16;95061.16;;;1.88;69.69
69570;BME280;56781;42.292;23.146;2024-02-14T06:27:44;95459.16;;;4.49;68.24
69570;BME280;56781;42.292;23.146;2024-02-14T06:30:15;95080.75;;;1.85;70.54
69570;BME280;56781;42.292;23.146;2024-02-14T06:32:44;95450.97;;;4.46;69.38
69570;BME280;56781;42.292;23.146;2024-02-14T06:35:13;95110.63;;;2.19;73.00
69570;BME280;56781;42.292;23.146;2024-02-14T06:37:47;94697.44;;;-0.54;69.55
69570;BME280;56781;42.292;23.146;2024-02-14T06:40:29;95480.19;;;4.59;70.41
69570;BME280;56781;42.292;23.146;2024-02-14T06:42:58;95399.06;;;4.13;71.28
69570;BME280;56781;42.292;23.146;2024-02-14T06:45:29;94830.72;;;0.44;69.74
69570;BME280;56781;42.292;23.146;2024-02-14T06:47:58;95350.69;;;3.85;69.65
69570;BME280;56781;42.292;23.146;2024-02-14T06:50:27;94913.69;;;0.81;70.48
69570;BME280;56781;42.292;23.146;2024-02-14T06:52:56;95037.53;;;1.59;70.09
69570;BME280;56781;42.292;23.146;2024-02-14T06:55:27;94877.16;;;0.60;67.55
69570;BME280;56781;42.292;23.146;2024-02-14T06:57:56;95490.34;;;4.66;69.36
69570;BME280;56781;42.292;23.146;2024-02-14T07:00:24;95390.50;;;3.85;69.80
69570;BME280;56781;42.292;23.146;2024-02-14T07:02:54;94871.06;;;0.63;70.42
69570;BME280;56781;42.292;23.146;2024-02-14T07:05:23;95430.47;;;3.95;68.49
69570;BME280;56781;42.292;23.146;2024-02-14T07:07:53;95344.56;;;3.62;67.81
69570;BME280;56781;42.292;23.146;2024-02-14T07:10:22;95383.41;;;3.99;68.79
69570;BME280;56781;42.292;23.146;2024-02-14T07:12:50;95486.91;;;4.42;69.51
69570;BME280;56781;42.292;23.146;2024-02-14T07:15:19;95038.25;;;1.55;72.21
69570;BME280;56781;42.292;23.146;2024-02-14T07:17:48;94857.53;;;0.21;68.61
69570;BME280;56781;42.292;23.146;2024-02-14T07:20:18;95511.06;;;4.81;66.88
69570;BME280;56781;42.292;23.146;2024-02-14T07:22:47;95239.75;;;3.05;68.27
69570;BME280;56781;42.292;23.146;2024-02-14T07:25:20;94921.25;;;0.95;66.84
69570;BME280;56781;42.292;23.146;2024-02-14T07:27:48;95446.28;;;4.42;68.36
69570;BME280;56781;42.292;23.146;2024-02-14T07:30:17;94939.78;;;1.19;67.89
69570;BME280;56781;42.292;23.146;2024-02-14T07:32:46;95527.19;;;4.97;69.00
69570;BME280;56781;42.292;23.146;2024-02-14T07:35:15;95014.13;;;1.43;68.86
69570;BME280;56781;42.292;23.146;2024-02-14T07:37:46;95534.88;;;4.95;67.36
69570;BME280;56781;42.292;23.146;2024-02-14T07:40:15;95544.22;;;4.71;68.19
69570;BME280;56781;42.292;23.146;2024-02-14T07:42:44;94896.31;;;0.20;68.93
69570;BME280;56781;42.292;23.146;2024-02-14T07:45:13;94927.59;;;0.28;68.50
69570;BME280;56781;42.292;23.146;2024-02-14T07:47:42;95539.94;;;4.43;68.03
69570;BME280;56781;42.292;23.146;2024-02-14T07:50:11;95190.19;;;1.86;69.67
69570;BME280;56781;42.292;23.146;2024-02-14T07:52:41;95425.78;;;3.46;69.63
69570;BME280;56781;42.292;23.146;2024-02-14T07:55:13;95480.44;;;3.78;69.47
69570;BME280;56781;42.292;23.146;2024-02-14T07:57:42;94860.97;;;-0.49;68.24
69570;BME280;56781;42.292;23.146;2024-02-14T08:00:12;94883.66;;;-0.31;69.33
69570;BME280;56781;42.292;23.146;2024-02-14T08:02:46;95554.66;;;4.00;71.24
69570;BME280;56781;42.292;23.146;2024-02-14T08:05:14;94738.31;;;-1.60;70.18
69570;BME280;56781;42.292;23.146;2024-02-14T08:07:44;94867.84;;;-0.68;69.47
69570;BME280;56781;42.292;23.146;2024-02-14T08:10:15;95565.66;;;3.88;69.85
69570;BME280;56781;42.292;23.146;2024-02-14T08:12:44;95133.19;;;0.94;70.65
69570;BME280;56781;42.292;23.146;2024-02-14T08:15:13;95213.94;;;1.26;70.46
69570;BME280;56781;42.292;23.146;2024-02-14T08:17:42;95574.56;;;3.88;71.22
69570;BME280;56781;42.292;23.146;2024-02-14T08:20:13;95520.25;;;3.58;71.08
69570;BME280;56781;42.292;23.146;2024-02-14T08:22:42;95547.16;;;3.70;71.62
69570;BME280;56781;42.292;23.146;2024-02-14T08:25:11;95184.41;;;1.14;71.41
69570;BME280;56781;42.292;23.146;2024-02-14T08:27:41;95589.66;;;3.89;71.64
69570;BME280;56781;42.292;23.146;2024-02-14T08:30:11;95577.63;;;3.87;70.50
69570;BME280;56781;42.292;23.146;2024-02-14T08:32:40;95275.28;;;1.84;71.01
69570;BME280;56781;42.292;23.146;2024-02-14T08:35:09;95472.41;;;3.20;70.91
69570;BME280;56781;42.292;23.146;2024-02-14T08:37:41;94925.97;;;-0.28;71.25
69570;BME280;56781;42.292;23.146;2024-02-14T08:40:10;95137.50;;;1.15;70.58
69570;BME280;56781;42.292;23.146;2024-02-14T08:42:41;95019.03;;;0.44;70.19
69570;BME280;56781;42.292;23.146;2024-02-14T08:45:09;95589.38;;;4.17;71.02
69570;BME280;56781;42.292;23.146;2024-02-14T08:47:38;95470.22;;;3.45;70.83
69570;BME280;56781;42.292;23.146;2024-02-14T08:50:08;94912.63;;;-0.40;70.01
69570;BME280;56781;42.292;23.146;2024-02-14T08:52:37;95496.94;;;3.50;70.01
69570;BME280;56781;42.292;23.146;2024-02-14T08:55:06;95219.41;;;1.65;71.08
69570;BME280;56781;42.292;23.146;2024-02-14T08:57:43;94848.16;;;-1.03;70.63
69570;BME280;56781;42.292;23.146;2024-02-14T09:00:12;95139.53;;;0.86;70.61
69570;BME280;56781;42.292;23.146;2024-02-14T09:02:42;95598.41;;;4.02;70.36
69570;BME280;56781;42.292;23.146;2024-02-14T09:05:10;94944.19;;;-0.37;70.90
69570;BME280;56781;42.292;23.146;2024-02-14T09:07:39;95649.38;;;4.00;72.02
69570;BME280;56781;42.292;23.146;2024-02-14T09:10:09;95187.81;;;0.95;69.87
69570;BME280;56781;42.292;23.146;2024-02-14T09:12:39;95530.31;;;3.58;71.57
69570;BME280;56781;42.292;23.146;2024-02-14T09:15:11;95653.44;;;4.10;72.00
69570;BME280;56781;42.292;23.146;2024-02-14T09:17:40;95605.22;;;3.96;71.19
69570;BME280;56781;42.292;23.146;2024-02-14T09:20:10;95550.72;;;3.74;73.62
69570;BME280;56781;42.292;23.146;2024-02-14T09:22:41;95211.34;;;1.49;71.81
69570;BME280;56781;42.292;23.146;2024-02-14T09:25:10;95004.97;;;0.35;70.58
69570;BME280;56781;42.292;23.146;2024-02-14T09:27:40;95278.56;;;2.32;71.93
69570;BME280;56781;42.292;23.146;2024-02-14T09:30:11;94949.53;;;-0.05;70.23
69570;BME280;56781;42.292;23.146;2024-02-14T09:32:57;95630.41;;;4.19;70.79
69570;BME280;56781;42.292;23.146;2024-02-14T09:35:26;95515.66;;;3.39;71.76
69570;BME280;56781;42.292;23.146;2024-02-14T09:37:55;95635.84;;;4.19;71.46
69570;BME280;56781;42.292;23.146;2024-02-14T09:40:24;94948.41;;;-0.20;72.02
69570;BME280;56781;42.292;23.146;2024-02-14T09:42:54;95090.16;;;0.62;71.63
69570;BME280;56781;42.292;23.146;2024-02-14T09:45:27;95524.50;;;3.78;69.96
69570;BME280;56781;42.292;23.146;2024-02-14T09:47:56;94990.25;;;0.29;69.66
69570;BME280;56781;42.292;23.146;2024-02-14T09:50:26;95653.06;;;4.31;69.85
69570;BME280;56781;42.292;23.146;2024-02-14T09:52:59;95263.47;;;1.72;70.28
69570;BME280;56781;42.292;23.146;2024-02-14T09:55:28;95625.31;;;4.60;70.70
69570;BME280;56781;42.292;23.146;2024-02-14T09:57:57;95172.63;;;1.57;70.06
69570;BME280;56781;42.292;23.146;2024-02-14T10:00:33;95622.44;;;4.50;71.69
69570;BME280;56781;42.292;23.146;2024-02-14T10:03:03;95042.13;;;0.45;68.83
69570;BME280;56781;42.292;23.146;2024-02-14T10:05:32;95496.50;;;3.67;69.75
69570;BME280;56781;42.292;23.146;2024-02-14T10:08:01;95284.25;;;2.07;71.87
69570;BME280;56781;42.292;23.146;2024-02-14T10:10:31;95398.75;;;3.03;71.96
69570;BME280;56781;42.292;23.146;2024-02-14T10:13:03;95560.81;;;3.97;70.56
69570;BME280;56781;42.292;23.146;2024-02-14T10:15:34;95635.06;;;4.42;71.22
69570;BME280;56781;42.292;23.146;2024-02-14T10:18:03;95041.94;;;0.38;71.23
69570;BME280;56781;42.292;23.146;2024-02-14T10:20:32;95510.03;;;3.67;72.96
69570;BME280;56781;42.292;23.146;2024-02-14T10:23:01;95151.25;;;1.09;71.20
69570;BME280;56781;42.292;23.146;2024-02-14T10:25:30;94962.63;;;-0.19;71.73
69570;BME280;56781;42.292;23.146;2024-02-14T10:28:03;94929.53;;;-0.24;69.53
69570;BME280;56781;42.292;23.146;2024-02-14T10:30:34;95374.75;;;2.59;71.71
69570;BME280;56781;42.292;23.146;2024-02-14T10:33:03;95567.66;;;3.71;72.69
69570;BME280;56781;42.292;23.146;2024-02-14T10:35:50;94677.38;;;-1.91;71.21
69570;BME280;56781;42.292;23.146;2024-02-14T10:38:25;95038.28;;;0.46;72.59
69570;BME280;56781;42.292;23.146;2024-02-14T10:40:56;94976.00;;;-0.07;70.94
69570;BME280;56781;42.292;23.146;2024-02-14T10:43:28;94975.72;;;-0.02;71.36
69570;BME280;56781;42.292;23.146;2024-02-14T10:46:00;95304.19;;;2.22;72.62
69570;BME280;56781;42.292;23.146;2024-02-14T10:48:35;94920.50;;;-0.15;70.83
69570;BME280;56781;42.292;23.146;2024-02-14T10:51:08;94841.59;;;-0.74;70.95
69570;BME280;56781;42.292;23.146;2024-02-14T10:53:39;94972.97;;;0.30;70.49
69570;BME280;56781;42.292;23.146;2024-02-14T10:56:17;95289.09;;;2.37;69.81
69570;BME280;56781;42.292;23.146;2024-02-14T10:58:47;95315.84;;;2.46;70.79
69570;BME280;56781;42.292;23.146;2024-02-14T11:01:18;95298.78;;;2.41;70.46
69570;BME280;56781;42.292;23.146;2024-02-14T11:03:47;95539.16;;;3.97;71.61
69570;BME280;56781;42.292;23.146;2024-02-14T11:06:17;94897.16;;;-0.11;69.55
69570;BME280;56781;42.292;23.146;2024-02-14T11:08:56;95272.22;;;2.43;69.31
69570;BME280;56781;42.292;23.146;2024-02-14T11:11:25;94948.75;;;0.30;70.45
69570;BME280;56781;42.292;23.146;2024-02-14T11:13:54;95331.03;;;2.73;69.71
69570;BME280;56781;42.292;23.146;2024-02-14T11:16:25;95206.31;;;1.83;69.23
69570;BME280;56781;42.292;23.146;2024-02-14T11:19:06;95645.63;;;4.70;69.00
69570;BME280;56781;42.292;23.146;2024-02-14T11:21:36;94951.53;;;-0.02;70.00
69570;BME280;56781;42.292;23.146;2024-02-14T11:24:07;95616.63;;;4.74;70.69
69570;BME280;56781;42.292;23.146;2024-02-14T11:26:39;95071.91;;;1.07;68.62
69570;BME280;56781;42.292;23.146;2024-02-14T11:29:14;95515.97;;;4.22;69.78
69570;BME280;56781;42.292;23.146;2024-02-14T11:31:57;95329.75;;;2.86;68.43
69570;BME280;56781;42.292;23.146;2024-02-14T11:34:28;95110.19;;;1.16;68.30
69570;BME280;56781;42.292;23.146;2024-02-14T11:37:04;95541.38;;;4.14;67.97
69570;BME280;56781;42.292;23.146;2024-02-14T11:39:33;94842.81;;;-0.20;66.58
69570;BME280;56781;42.292;23.146;2024-02-14T11:42:02;95502.66;;;4.10;68.37
69570;BME280;56781;42.292;23.146;2024-02-14T11:44:31;95514.53;;;4.29;67.58
69570;BME280;56781;42.292;23.146;2024-02-14T11:47:02;95113.56;;;1.48;67.01
69570;BME280;56781;42.292;23.146;2024-02-14T11:49:32;95024.38;;;1.15;67.00
69570;BME280;56781;42.292;23.146;2024-02-14T11:52:01;95495.78;;;4.16;67.53
69570;BME280;56781;42.292;23.146;2024-02-14T11:54:31;95074.13;;;1.21;68.31
69570;BME280;56781;42.292;23.146;2024-02-14T11:57:00;95014.44;;;0.80;66.89
69570;BME280;56781;42.292;23.146;2024-02-14T11:59:29;95189.59;;;2.16;67.21
69570;BME280;56781;42.292;23.146;2024-02-14T12:02:01;95511.59;;;4.14;65.92
69570;BME280;56781;42.292;23.146;2024-02-14T12:04:30;94973.50;;;0.71;67.90
69570;BME280;56781;42.292;23.146;2024-02-14T12:07:01;94953.16;;;0.38;68.58
69570;BME280;56781;42.292;23.146;2024-02-14T12:09:29;95514.25;;;4.11;68.28
69570;BME280;56781;42.292;23.146;2024-02-14T12:11:59;94875.47;;;-0.38;66.63
69570;BME280;56781;42.292;23.146;2024-02-14T12:14:27;95520.00;;;4.09;68.36
69570;BME280;56781;42.292;23.146;2024-02-14T12:17:01;95017.72;;;0.73;68.72
69570;BME280;56781;42.292;23.146;2024-02-14T12:19:30;95606.56;;;4.75;69.64
69570;BME280;56781;42.292;23.146;2024-02-14T12:22:00;94910.81;;;0.15;68.40
69570;BME280;56781;42.292;23.146;2024-02-14T12:24:29;94923.66;;;0.41;65.52
69570;BME280;56781;42.292;23.146;2024-02-14T12:26:58;95345.09;;;3.02;67.30
69570;BME280;56781;42.292;23.146;2024-02-14T12:29:27;95350.56;;;3.28;67.74
69570;BME280;56781;42.292;23.146;2024-02-14T12:32:05;95471.41;;;4.16;66.21
69570;BME280;56781;42.292;23.146;2024-02-14T12:34:34;95334.00;;;3.07;66.16
69570;BME280;56781;42.292;23.146;2024-02-14T12:37:03;95355.97;;;3.28;66.94
69570;BME280;56781;42.292;23.146;2024-02-14T12:39:32;95545.22;;;4.36;68.10
69570;BME280;56781;42.292;23.146;2024-02-14T12:42:01;95467.16;;;3.69;65.93
69570;BME280;56781;42.292;23.146;2024-02-14T12:44:30;95347.16;;;3.31;65.55
69570;BME280;56781;42.292;23.146;2024-02-14T12:46:59;95439.69;;;3.90;65.62
69570;BME280;56781;42.292;23.146;2024-02-14T12:49:29;95427.47;;;3.54;66.31
69570;BME280;56781;42.292;23.146;2024-02-14T12:51:59;95063.00;;;1.22;65.36
69570;BME280;56781;42.292;23.146;2024-02-14T12:54:27;95453.84;;;4.07;65.71
69570;BME280;56781;42.292;23.146;2024-02-14T12:56:56;94884.38;;;0.37;65.58
69570;BME280;56781;42.292;23.146;2024-02-14T12:59:24;94901.78;;;0.43;66.06
69570;BME280;56781;42.292;23.146;2024-02-14T13:01:53;95023.09;;;1.28;66.17
69570;BME280;56781;42.292;23.146;2024-02-14T13:04:22;95521.53;;;4.30;66.06
69570;BME280;56781;42.292;23.146;2024-02-14T13:06:53;95156.31;;;2.08;65.82
69570;BME280;56781;42.292;23.146;2024-02-14T13:09:22;95573.97;;;4.68;65.42
69570;BME280;56781;42.292;23.146;2024-02-14T13:11:50;95619.72;;;4.99;66.21
69570;BME280;56781;42.292;23.146;2024-02-14T13:14:19;95050.09;;;1.12;65.28